Time;durP1;ratioP1;P1;durP2;ratioP2;P2;SDS_P1;SDS_P2;PMS_P1;PMS_P2;Temp;Humidity;BMP_temperature;BMP_pressure;BME280_temperature;BME280_humidity;BME280_pressure;Samples;Min_cycle;Max_cycle;Signal;HPM_P1;HPM_P2
2024/02/20 00:00:12;;;;;;;;;;;;;;;;;;5072593;28;20286;-73
2024/02/20 00:02:39;;;;;;;;;;;;;;;;;;5091585;28;19963;-73
2024/02/20 00:05:08;;;;;;;;;;;;;;;;;;5091232;28;20135;-75
2024/02/20 00:07:33;;;;;;;;;;;;;;;;;;5073741;28;20433;-73
2024/02/20 00:09:58;;;;;;;;;;;;;;;;;;5088675;28;19926;-74
2024/02/20 00:12:24;;;;;;;;;;;;;;;;;;5091836;28;20483;-74
2024/02/20 00:14:49;;;;;;;;;;;;;;;;;;5073401;28;20409;-73
2024/02/20 00:17:14;;;;;;;;;;;;;;;;;;5073596;28;19916;-73
2024/02/20 00:19:43;;;;;;;;;;;;;;;;;;5076467;28;19920;-74
2024/02/20 00:22:08;;;;;;;;;;;;;;;;;;5057751;28;19968;-73
2024/02/20 00:24:33;;;;;;;;;;;;;;;;;;5075261;28;20034;-73
2024/02/20 00:26:59;;;;;;;;;;;;;;;;;;5073772;28;20046;-73
2024/02/20 00:29:24;;;;;;;;;;;;;;;;;;5075453;28;20271;-75
2024/02/20 00:31:49;;;;;;;;;;;;;;;;;;5091198;28;19919;-73
2024/02/20 00:34:14;;;;;;;;;;;;;;;;;;5091419;28;20500;-73
2024/02/20 00:36:40;;;;;;;;;;;;;;;;;;5074514;28;20044;-74
2024/02/20 00:39:12;;;;;;;;;;;;;;;;;;5090804;28;19960;-73
2024/02/20 00:41:40;;;;;;;;;;;;;;;;;;5072186;28;20270;-73
2024/02/20 00:44:05;;;;;;;;;;;;;;;;;;5090151;28;20007;-74
2024/02/20 00:46:33;;;;;;;;;;;;;;;;;;5089272;28;20040;-74
2024/02/20 00:48:58;;;;;;;;;;;;;;;;;;5071173;28;20294;-74
2024/02/20 00:51:26;;;;;;;;;;;;;;;;;;5091411;28;19922;-73
2024/02/20 00:53:51;;;;;;;;;;;;;;;;;;5087957;28;19920;-72
2024/02/20 00:56:17;;;;;;;;;;;;;;;;;;5089050;28;19919;-74
2024/02/20 00:58:42;;;;;;;;;;;;;;;;;;5089957;28;19923;-73
2024/02/20 01:01:10;;;;;;;;;;;;;;;;;;5090210;28;19916;-73
2024/02/20 01:03:35;;;;;;;;;;;;;;;;;;5085662;28;20075;-73
2024/02/20 01:06:01;;;;;;;;;;;;;;;;;;5089656;28;19916;-73
2024/02/20 01:08:26;;;;;;;;;;;;;;;;;;5072175;28;19968;-73
2024/02/20 01:10:54;;;;;;;;;;;;;;;;;;5089478;28;19959;-72
2024/02/20 01:13:19;;;;;;;;;;;;;;;;;;5089996;28;20308;-74
2024/02/20 01:15:45;;;;;;;;;;;;;;;;;;5072128;28;19927;-73
2024/02/20 01:18:10;;;;;;;;;;;;;;;;;;5073277;28;19920;-74
2024/02/20 01:20:38;;;;;;;;;;;;;;;;;;5075063;28;19915;-74
2024/02/20 01:23:04;;;;;;;;;;;;;;;;;;5070126;28;19919;-74
2024/02/20 01:25:31;;;;;;;;;;;;;;;;;;5074678;28;19995;-73
2024/02/20 01:27:59;;;;;;;;;;;;;;;;;;5073328;28;20385;-73
2024/02/20 01:30:25;;;;;;;;;;;;;;;;;;5070236;28;20405;-74
2024/02/20 01:32:51;;;;;;;;;;;;;;;;;;5088713;28;19966;-74
2024/02/20 01:35:17;;;;;;;;;;;;;;;;;;5088464;28;20261;-74
2024/02/20 01:37:42;;;;;;;;;;;;;;;;;;5070723;28;19931;-73
2024/02/20 01:40:08;;;;;;;;;;;;;;;;;;5069817;28;19919;-73
2024/02/20 01:42:35;;;;;;;;;;;;;;;;;;5089640;28;19926;-73
2024/02/20 01:45:00;;;;;;;;;;;;;;;;;;5088953;28;19997;-74
2024/02/20 01:47:25;;;;;;;;;;;;;;;;;;5056159;28;19941;-73
2024/02/20 01:49:51;;;;;;;;;;;;;;;;;;5089436;28;19923;-74
2024/02/20 01:52:16;;;;;;;;;;;;;;;;;;5073129;28;20367;-73
2024/02/20 01:54:42;;;;;;;;;;;;;;;;;;5088926;28;19923;-74
2024/02/20 01:57:09;;;;;;;;;;;;;;;;;;5088208;28;19923;-72
2024/02/20 01:59:34;;;;;;;;;;;;;;;;;;5088607;28;19916;-74
2024/02/20 02:02:00;;;;;;;;;;;;;;;;;;5071209;28;19916;-73
2024/02/20 02:04:25;;;;;;;;;;;;;;;;;;5087161;28;19953;-73
2024/02/20 02:06:52;;;;;;;;;;;;;;;;;;5087381;28;19916;-74
2024/02/20 02:09:20;;;;;;;;;;;;;;;;;;5087023;28;20010;-73
2024/02/20 02:11:45;;;;;;;;;;;;;;;;;;5086801;27;20483;-73
2024/02/20 02:14:10;;;;;;;;;;;;;;;;;;5071380;28;20557;-73
2024/02/20 02:16:36;;;;;;;;;;;;;;;;;;5087759;28;20136;-73
2024/02/20 02:19:01;;;;;;;;;;;;;;;;;;5087617;28;20302;-73
2024/02/20 02:21:26;;;;;;;;;;;;;;;;;;5072835;28;20423;-73
2024/02/20 02:23:51;;;;;;;;;;;;;;;;;;5087675;28;20123;-73
2024/02/20 02:26:17;;;;;;;;;;;;;;;;;;5056998;28;20412;-73
2024/02/20 02:28:47;;;;;;;;;;;;;;;;;;5087021;28;19981;-73
2024/02/20 02:31:12;;;;;;;;;;;;;;;;;;5071900;28;19945;-73
2024/02/20 02:33:40;;;;;;;;;;;;;;;;;;5072239;28;19942;-73
2024/02/20 02:36:08;;;;;;;;;;;;;;;;;;5087889;28;20382;-73
2024/02/20 02:38:39;;;;;;;;;;;;;;;;;;5057118;28;19923;-73
2024/02/20 02:41:05;;;;;;;;;;;;;;;;;;5070228;28;19920;-73
2024/02/20 02:43:30;;;;;;;;;;;;;;;;;;5074068;28;20005;-73
2024/02/20 02:45:55;;;;;;;;;;;;;;;;;;5069470;28;19917;-73
2024/02/20 02:48:20;;;;;;;;;;;;;;;;;;5087958;28;19962;-73
2024/02/20 02:50:46;;;;;;;;;;;;;;;;;;5071250;28;20405;-73
2024/02/20 02:53:11;;;;;;;;;;;;;;;;;;5072377;28;20629;-73
2024/02/20 02:55:39;;;;;;;;;;;;;;;;;;5072526;28;19919;-73
2024/02/20 02:58:05;;;;;;;;;;;;;;;;;;5065932;28;19927;-73
2024/02/20 03:00:30;;;;;;;;;;;;;;;;;;5087271;28;19955;-73
2024/02/20 03:02:57;;;;;;;;;;;;;;;;;;5072398;28;20026;-73
2024/02/20 03:05:22;;;;;;;;;;;;;;;;;;5087835;28;19920;-71
2024/02/20 03:07:49;;;;;;;;;;;;;;;;;;5070924;28;20517;-73
2024/02/20 03:10:15;;;;;;;;;;;;;;;;;;5067582;28;19922;-73
2024/02/20 03:12:40;;;;;;;;;;;;;;;;;;5087744;28;19927;-73
2024/02/20 03:15:06;;;;;;;;;;;;;;;;;;5086403;28;19966;-73
2024/02/20 03:17:31;;;;;;;;;;;;;;;;;;5071246;28;19952;-73
2024/02/20 03:19:59;;;;;;;;;;;;;;;;;;5053608;28;19965;-73
2024/02/20 03:22:27;;;;;;;;;;;;;;;;;;5087256;28;19926;-73
2024/02/20 03:24:56;;;;;;;;;;;;;;;;;;5068391;28;19916;-73
2024/02/20 03:27:21;;;;;;;;;;;;;;;;;;5086925;28;19923;-73
2024/02/20 03:29:47;;;;;;;;;;;;;;;;;;5086992;28;19961;-73
2024/02/20 03:32:15;;;;;;;;;;;;;;;;;;5087925;28;19919;-73
2024/02/20 03:34:40;;;;;;;;;;;;;;;;;;5087642;28;20158;-73
2024/02/20 03:37:05;;;;;;;;;;;;;;;;;;5070862;28;19927;-73
2024/02/20 03:39:31;;;;;;;;;;;;;;;;;;5068515;28;19916;-73
2024/02/20 03:41:56;;;;;;;;;;;;;;;;;;5086687;28;19994;-73
2024/02/20 03:44:22;;;;;;;;;;;;;;;;;;5089327;28;20036;-73
2024/02/20 03:46:47;;;;;;;;;;;;;;;;;;5087915;28;19993;-73
2024/02/20 03:49:15;;;;;;;;;;;;;;;;;;5072486;28;19919;-73
2024/02/20 03:51:42;;;;;;;;;;;;;;;;;;5072508;28;20014;-74
2024/02/20 03:54:08;;;;;;;;;;;;;;;;;;5086488;28;19916;-72
2024/02/20 03:56:33;;;;;;;;;;;;;;;;;;5086775;28;19931;-72
2024/02/20 03:59:01;;;;;;;;;;;;;;;;;;5087985;28;19967;-73
2024/02/20 04:01:26;;;;;;;;;;;;;;;;;;5068987;28;19920;-72
2024/02/20 04:03:51;;;;;;;;;;;;;;;;;;5087670;28;19922;-72
2024/02/20 04:06:19;;;;;;;;;;;;;;;;;;5055556;28;19931;-72
2024/02/20 04:08:44;;;;;;;;;;;;;;;;;;5071417;28;21110;-73
2024/02/20 04:11:10;;;;;;;;;;;;;;;;;;5052757;28;20064;-72
2024/02/20 04:13:38;;;;;;;;;;;;;;;;;;5087303;28;20002;-72
2024/02/20 04:16:03;;;;;;;;;;;;;;;;;;5055352;28;19923;-72
2024/02/20 04:18:28;;;;;;;;;;;;;;;;;;5088453;28;19915;-73
2024/02/20 04:20:53;;;;;;;;;;;;;;;;;;5055282;28;21051;-72
2024/02/20 04:26:35;;;;;;;;;;;;;;;;;;5085247;28;20440;-73
2024/02/20 04:29:00;;;;;;;;;;;;;;;;;;5071010;28;19916;-72
2024/02/20 04:31:25;;;;;;;;;;;;;;;;;;5067738;28;19924;-73
2024/02/20 04:33:51;;;;;;;;;;;;;;;;;;5088039;28;19916;-72
2024/02/20 04:36:22;;;;;;;;;;;;;;;;;;5087254;28;20098;-71
2024/02/20 04:38:49;;;;;;;;;;;;;;;;;;5086153;28;19923;-72
2024/02/20 04:41:14;;;;;;;;;;;;;;;;;;5084774;28;20412;-72
2024/02/20 04:43:43;;;;;;;;;;;;;;;;;;5086449;28;19973;-73
2024/02/20 04:46:11;;;;;;;;;;;;;;;;;;5089752;28;19994;-72
2024/02/20 04:48:37;;;;;;;;;;;;;;;;;;5089205;28;19919;-72
2024/02/20 04:51:02;;;;;;;;;;;;;;;;;;5091859;28;19916;-72
2024/02/20 04:53:27;;;;;;;;;;;;;;;;;;5073276;28;21539;-72
2024/02/20 04:55:52;;;;;;;;;;;;;;;;;;5088437;28;20395;-73
2024/02/20 04:58:20;;;;;;;;;;;;;;;;;;5088763;28;20364;-74
2024/02/20 05:00:48;;;;;;;;;;;;;;;;;;5075344;28;19958;-74
2024/02/20 05:03:16;;;;;;;;;;;;;;;;;;5059964;28;19931;-73
2024/02/20 05:05:44;;;;;;;;;;;;;;;;;;5090658;28;19920;-73
2024/02/20 05:08:09;;;;;;;;;;;;;;;;;;5070751;28;20366;-73
2024/02/20 05:10:34;;;;;;;;;;;;;;;;;;5087949;28;20520;-73
2024/02/20 05:13:02;;;;;;;;;;;;;;;;;;5071548;28;19931;-74
2024/02/20 05:15:27;;;;;;;;;;;;;;;;;;5090607;28;20050;-73
2024/02/20 05:17:53;;;;;;;;;;;;;;;;;;5091686;28;20356;-73
2024/02/20 05:20:22;;;;;;;;;;;;;;;;;;5088943;28;19962;-73
2024/02/20 05:22:50;;;;;;;;;;;;;;;;;;5088490;28;20426;-73
2024/02/20 05:25:16;;;;;;;;;;;;;;;;;;5072983;28;20505;-74
2024/02/20 05:27:44;;;;;;;;;;;;;;;;;;5088786;28;19915;-73
2024/02/20 05:30:09;;;;;;;;;;;;;;;;;;5089422;28;19915;-73
2024/02/20 05:35:51;;;;;;;;;;;;;;;;;;5088753;28;19931;-73
2024/02/20 05:38:18;;;;;;;;;;;;;;;;;;5088813;28;19928;-73
2024/02/20 05:40:43;;;;;;;;;;;;;;;;;;5088981;28;19920;-74
2024/02/20 05:43:11;;;;;;;;;;;;;;;;;;5090183;28;19948;-73
2024/02/20 05:45:36;;;;;;;;;;;;;;;;;;5088141;28;20292;-73
2024/02/20 05:48:02;;;;;;;;;;;;;;;;;;5074916;28;19952;-73
2024/02/20 05:50:28;;;;;;;;;;;;;;;;;;5074200;28;19920;-73
2024/02/20 05:52:55;;;;;;;;;;;;;;;;;;5074523;28;19961;-72
2024/02/20 05:55:23;;;;;;;;;;;;;;;;;;5087520;28;19924;-73
2024/02/20 05:57:49;;;;;;;;;;;;;;;;;;5089204;28;20392;-72
2024/02/20 06:00:14;;;;;;;;;;;;;;;;;;5071639;28;19989;-72
2024/02/20 06:02:39;;;;;;;;;;;;;;;;;;5087388;28;19920;-73
2024/02/20 06:05:04;;;;;;;;;;;;;;;;;;5087219;28;19995;-73
2024/02/20 06:07:30;;;;;;;;;;;;;;;;;;5088325;28;21479;-72
2024/02/20 06:09:58;;;;;;;;;;;;;;;;;;5072600;28;19916;-73
2024/02/20 06:12:25;;;;;;;;;;;;;;;;;;5086058;28;20022;-73
2024/02/20 06:14:51;;;;;;;;;;;;;;;;;;5074480;28;19973;-73
2024/02/20 06:17:16;;;;;;;;;;;;;;;;;;5070596;28;19994;-73
2024/02/20 06:19:44;;;;;;;;;;;;;;;;;;5088183;28;20294;-73
2024/02/20 06:22:12;;;;;;;;;;;;;;;;;;5087557;28;20294;-73
2024/02/20 06:24:37;;;;;;;;;;;;;;;;;;5088510;28;19954;-73
2024/02/20 06:27:06;;;;;;;;;;;;;;;;;;5087637;28;20317;-73
2024/02/20 06:29:32;;;;;;;;;;;;;;;;;;5087525;28;19998;-73
2024/02/20 06:31:59;;;;;;;;;;;;;;;;;;5086809;28;20089;-73
2024/02/20 06:34:27;;;;;;;;;;;;;;;;;;5086703;28;19919;-73
2024/02/20 06:36:52;;;;;;;;;;;;;;;;;;5070427;28;19924;-73
2024/02/20 06:39:17;;;;;;;;;;;;;;;;;;5069904;28;19924;-73
2024/02/20 06:41:43;;;;;;;;;;;;;;;;;;5088511;28;19915;-73
2024/02/20 06:44:08;;;;;;;;;;;;;;;;;;5088280;28;20282;-72
2024/02/20 06:46:35;;;;;;;;;;;;;;;;;;5087969;28;20520;-72
2024/02/20 06:49:04;;;;;;;;;;;;;;;;;;5071044;28;20296;-72
2024/02/20 06:51:29;;;;;;;;;;;;;;;;;;5085661;28;19923;-72
2024/02/20 06:53:54;;;;;;;;;;;;;;;;;;5057324;28;20346;-72
2024/02/20 06:56:20;;;;;;;;;;;;;;;;;;5088236;28;20347;-73
2024/02/20 06:58:45;;;;;;;;;;;;;;;;;;5071417;28;19922;-73
2024/02/20 07:01:11;;;;;;;;;;;;;;;;;;5070810;28;19951;-73
2024/02/20 07:03:36;;;;;;;;;;;;;;;;;;5069791;28;19920;-72
2024/02/20 07:06:01;;;;;;;;;;;;;;;;;;5087660;28;20455;-73
2024/02/20 07:08:26;;;;;;;;;;;;;;;;;;5090134;28;19920;-73
2024/02/20 07:10:52;;;;;;;;;;;;;;;;;;5068314;28;19919;-72
2024/02/20 07:13:20;;;;;;;;;;;;;;;;;;5069213;28;19920;-74
2024/02/20 07:15:48;;;;;;;;;;;;;;;;;;5070837;28;20306;-72
2024/02/20 07:18:13;;;;;;;;;;;;;;;;;;5070578;28;19953;-72
2024/02/20 07:20:38;;;;;;;;;;;;;;;;;;5088459;28;19919;-72
2024/02/20 07:23:04;;;;;;;;;;;;;;;;;;5073301;28;19920;-72
2024/02/20 07:25:29;;;;;;;;;;;;;;;;;;5071622;28;19920;-72
2024/02/20 07:27:54;;;;;;;;;;;;;;;;;;5087309;28;19920;-73
2024/02/20 07:30:20;;;;;;;;;;;;;;;;;;5069573;28;20244;-72
2024/02/20 07:32:45;;;;;;;;;;;;;;;;;;5071510;28;19915;-73
2024/02/20 07:35:13;;;;;;;;;;;;;;;;;;5088329;28;20476;-72
2024/02/20 07:37:41;;;;;;;;;;;;;;;;;;5087068;28;19931;-72
2024/02/20 07:40:08;;;;;;;;;;;;;;;;;;5088144;28;19953;-72
2024/02/20 07:42:34;;;;;;;;;;;;;;;;;;5088720;28;20010;-72
2024/02/20 07:44:59;;;;;;;;;;;;;;;;;;5087843;28;20000;-71
2024/02/20 07:47:25;;;;;;;;;;;;;;;;;;5071003;28;20092;-72
2024/02/20 07:49:50;;;;;;;;;;;;;;;;;;5072195;28;19927;-72
2024/02/20 07:52:18;;;;;;;;;;;;;;;;;;5057400;28;20258;-72
2024/02/20 07:54:43;;;;;;;;;;;;;;;;;;5086496;28;19947;-72
2024/02/20 07:57:08;;;;;;;;;;;;;;;;;;5068390;28;19923;-72
2024/02/20 07:59:33;;;;;;;;;;;;;;;;;;5086771;28;20504;-72
2024/02/20 08:02:04;;;;;;;;;;;;;;;;;;5086053;28;19922;-72
2024/02/20 08:04:31;;;;;;;;;;;;;;;;;;5085953;28;19920;-72
2024/02/20 08:06:59;;;;;;;;;;;;;;;;;;5069967;28;19916;-72
2024/02/20 08:09:24;;;;;;;;;;;;;;;;;;5072033;28;19924;-72
2024/02/20 08:11:50;;;;;;;;;;;;;;;;;;5087262;28;20405;-71
2024/02/20 08:14:19;;;;;;;;;;;;;;;;;;5085914;28;20016;-71
2024/02/20 08:16:44;;;;;;;;;;;;;;;;;;5086536;28;20110;-69
2024/02/20 08:19:12;;;;;;;;;;;;;;;;;;5068625;28;19952;-70
2024/02/20 08:21:40;;;;;;;;;;;;;;;;;;5075255;28;20482;-71
2024/02/20 08:24:06;;;;;;;;;;;;;;;;;;5085190;27;19912;-71
2024/02/20 08:26:34;;;;;;;;;;;;;;;;;;5090057;28;19926;-71
2024/02/20 08:28:59;;;;;;;;;;;;;;;;;;5075936;28;19920;-71
2024/02/20 08:31:25;;;;;;;;;;;;;;;;;;5071112;28;20567;-71
2024/02/20 08:33:52;;;;;;;;;;;;;;;;;;5061081;28;20239;-71
2024/02/20 08:36:21;;;;;;;;;;;;;;;;;;5089883;28;19962;-71
2024/02/20 08:38:49;;;;;;;;;;;;;;;;;;5073098;28;19987;-71
2024/02/20 08:41:17;;;;;;;;;;;;;;;;;;5071353;28;20382;-71
2024/02/20 08:44:00;;;;;;;;;;;;;;;;;;5091137;28;19916;-71
2024/02/20 08:46:28;;;;;;;;;;;;;;;;;;5073743;28;19968;-70
2024/02/20 08:48:53;;;;;;;;;;;;;;;;;;5071835;28;19963;-70
2024/02/20 08:51:18;;;;;;;;;;;;;;;;;;5058550;28;19916;-70
2024/02/20 08:53:45;;;;;;;;;;;;;;;;;;5086265;28;19920;-70
2024/02/20 08:56:13;;;;;;;;;;;;;;;;;;5071809;28;19968;-71
2024/02/20 08:58:41;;;;;;;;;;;;;;;;;;5074079;28;19916;-70
2024/02/20 09:01:09;;;;;;;;;;;;;;;;;;5090070;28;20004;-70
2024/02/20 09:03:37;;;;;;;;;;;;;;;;;;5089859;28;20006;-70
2024/02/20 09:06:05;;;;;;;;;;;;;;;;;;5058447;28;19927;-70
2024/02/20 09:11:49;;;;;;;;;;;;;;;;;;5089069;28;19958;-70
2024/02/20 09:14:17;;;;;;;;;;;;;;;;;;5091912;28;19919;-70
2024/02/20 09:16:45;;;;;;;;;;;;;;;;;;5071124;28;19997;-70
2024/02/20 09:19:13;;;;;;;;;;;;;;;;;;5089876;28;20081;-69
2024/02/20 09:21:38;;;;;;;;;;;;;;;;;;5089248;28;19927;-69
2024/02/20 09:24:04;;;;;;;;;;;;;;;;;;5073978;28;19972;-70
2024/02/20 09:26:31;;;;;;;;;;;;;;;;;;5088698;28;20402;-70
2024/02/20 09:28:56;;;;;;;;;;;;;;;;;;5072725;28;19920;-69
2024/02/20 09:31:21;;;;;;;;;;;;;;;;;;5071468;28;19942;-70
2024/02/20 09:33:51;;;;;;;;;;;;;;;;;;5090330;28;19920;-70
2024/02/20 09:36:19;;;;;;;;;;;;;;;;;;5090876;28;19920;-71
2024/02/20 09:38:47;;;;;;;;;;;;;;;;;;5072782;28;20427;-70
2024/02/20 09:41:15;;;;;;;;;;;;;;;;;;5073690;28;20355;-70
2024/02/20 09:43:42;;;;;;;;;;;;;;;;;;5087550;28;20234;-70
2024/02/20 09:46:13;;;;;;;;;;;;;;;;;;5072306;28;19927;-70
2024/02/20 09:48:38;;;;;;;;;;;;;;;;;;5090497;28;19920;-70
2024/02/20 09:51:06;;;;;;;;;;;;;;;;;;5089448;28;20004;-70
2024/02/20 09:53:34;;;;;;;;;;;;;;;;;;5089852;28;19965;-70
2024/02/20 09:55:59;;;;;;;;;;;;;;;;;;5068455;28;19924;-70
2024/02/20 09:58:24;;;;;;;;;;;;;;;;;;5073522;28;19916;-70
2024/02/20 10:00:55;;;;;;;;;;;;;;;;;;5071933;28;20000;-71
2024/02/20 10:03:21;;;;;;;;;;;;;;;;;;5083830;28;19922;-69
2024/02/20 10:05:49;;;;;;;;;;;;;;;;;;5089189;28;20014;-69
2024/02/20 10:08:20;;;;;;;;;;;;;;;;;;5086228;28;19956;-69
2024/02/20 10:10:50;;;;;;;;;;;;;;;;;;5088596;28;19923;-70
2024/02/20 10:13:18;;;;;;;;;;;;;;;;;;5087220;28;19918;-69
2024/02/20 10:15:45;;;;;;;;;;;;;;;;;;5089718;28;19916;-69
2024/02/20 10:18:10;;;;;;;;;;;;;;;;;;5088734;28;20276;-69
2024/02/20 10:20:35;;;;;;;;;;;;;;;;;;5071291;28;20009;-69
2024/02/20 10:23:06;;;;;;;;;;;;;;;;;;5072001;28;19915;-69
2024/02/20 10:25:34;;;;;;;;;;;;;;;;;;5070901;28;20386;-69
2024/02/20 10:27:59;;;;;;;;;;;;;;;;;;5070782;28;20039;-69
2024/02/20 10:30:27;;;;;;;;;;;;;;;;;;5064381;28;20343;-71
2024/02/20 10:32:52;;;;;;;;;;;;;;;;;;5088504;28;20097;-68
2024/02/20 10:35:18;;;;;;;;;;;;;;;;;;5086556;28;19916;-68
2024/02/20 10:37:46;;;;;;;;;;;;;;;;;;5089509;28;20550;-69
2024/02/20 10:40:11;;;;;;;;;;;;;;;;;;5054692;28;20143;-69
2024/02/20 10:42:36;;;;;;;;;;;;;;;;;;5072051;28;19958;-69
2024/02/20 10:45:02;;;;;;;;;;;;;;;;;;5088122;28;19920;-68
2024/02/20 10:47:27;;;;;;;;;;;;;;;;;;5072828;28;20150;-68
2024/02/20 10:49:53;;;;;;;;;;;;;;;;;;5073959;28;19920;-68
2024/02/20 10:52:22;;;;;;;;;;;;;;;;;;5071769;28;20046;-69
2024/02/20 10:54:52;;;;;;;;;;;;;;;;;;5070335;28;20367;-69
2024/02/20 10:57:18;;;;;;;;;;;;;;;;;;5070470;28;19963;-68
2024/02/20 10:59:48;;;;;;;;;;;;;;;;;;5074020;28;19920;-69
2024/02/20 11:02:13;;;;;;;;;;;;;;;;;;5070316;28;20215;-69
2024/02/20 11:04:39;;;;;;;;;;;;;;;;;;5070873;28;19978;-69
2024/02/20 11:07:04;;;;;;;;;;;;;;;;;;5068688;28;19922;-68
2024/02/20 11:09:32;;;;;;;;;;;;;;;;;;5071567;28;20081;-68
2024/02/20 11:11:57;;;;;;;;;;;;;;;;;;5085432;28;19916;-69
2024/02/20 11:14:22;;;;;;;;;;;;;;;;;;5087639;28;20075;-69
2024/02/20 11:16:50;;;;;;;;;;;;;;;;;;5087459;28;19927;-69
2024/02/20 11:19:15;;;;;;;;;;;;;;;;;;5068703;28;20431;-68
2024/02/20 11:21:40;;;;;;;;;;;;;;;;;;5070514;28;20532;-69
2024/02/20 11:24:08;;;;;;;;;;;;;;;;;;5071428;28;19927;-68
2024/02/20 11:26:38;;;;;;;;;;;;;;;;;;5086854;28;20409;-68
2024/02/20 11:29:07;;;;;;;;;;;;;;;;;;5073224;28;19920;-69
2024/02/20 11:31:32;;;;;;;;;;;;;;;;;;5071799;28;19919;-68
2024/02/20 11:33:57;;;;;;;;;;;;;;;;;;5070924;28;19919;-67
2024/02/20 11:36:23;;;;;;;;;;;;;;;;;;5085984;28;21633;-67
2024/02/20 11:38:50;;;;;;;;;;;;;;;;;;5071136;28;19928;-69
2024/02/20 11:41:16;;;;;;;;;;;;;;;;;;5086707;28;20298;-68
2024/02/20 11:43:42;;;;;;;;;;;;;;;;;;5069120;28;19920;-70
2024/02/20 11:46:07;;;;;;;;;;;;;;;;;;5088422;28;19927;-70
2024/02/20 11:48:33;;;;;;;;;;;;;;;;;;5085766;28;19936;-68
2024/02/20 11:50:59;;;;;;;;;;;;;;;;;;5088667;28;19947;-68
2024/02/20 11:53:24;;;;;;;;;;;;;;;;;;5090390;28;19928;-69
2024/02/20 11:55:51;;;;;;;;;;;;;;;;;;5074223;28;19919;-69
2024/02/20 11:58:20;;;;;;;;;;;;;;;;;;5071912;28;19927;-69
2024/02/20 12:00:45;;;;;;;;;;;;;;;;;;5073529;28;20004;-69
2024/02/20 12:03:11;;;;;;;;;;;;;;;;;;5076373;28;20006;-69
2024/02/20 12:05:43;;;;;;;;;;;;;;;;;;5092554;28;20006;-69
2024/02/20 12:08:08;;;;;;;;;;;;;;;;;;5075889;28;20015;-69
2024/02/20 12:10:36;;;;;;;;;;;;;;;;;;5072985;28;19915;-71
2024/02/20 12:13:01;;;;;;;;;;;;;;;;;;5072159;28;20712;-70
2024/02/20 12:15:26;;;;;;;;;;;;;;;;;;5091342;28;19959;-70
2024/02/20 12:17:52;;;;;;;;;;;;;;;;;;5072703;28;19950;-69
2024/02/20 12:20:20;;;;;;;;;;;;;;;;;;5074639;28;19924;-70
2024/02/20 12:22:47;;;;;;;;;;;;;;;;;;5060350;28;20003;-70
2024/02/20 12:25:13;;;;;;;;;;;;;;;;;;5072012;28;19964;-71
2024/02/20 12:27:41;;;;;;;;;;;;;;;;;;5073528;28;19923;-73
2024/02/20 12:30:06;;;;;;;;;;;;;;;;;;5090592;28;19920;-69
2024/02/20 12:32:32;;;;;;;;;;;;;;;;;;5092321;28;19969;-69
2024/02/20 12:34:57;;;;;;;;;;;;;;;;;;5073142;28;19980;-69
2024/02/20 12:37:28;;;;;;;;;;;;;;;;;;5074032;28;19924;-69
2024/02/20 12:39:55;;;;;;;;;;;;;;;;;;5075800;28;21191;-69
2024/02/20 12:42:22;;;;;;;;;;;;;;;;;;5089860;28;19920;-68
2024/02/20 12:44:51;;;;;;;;;;;;;;;;;;5092414;28;20309;-70
2024/02/20 12:47:16;;;;;;;;;;;;;;;;;;5074105;28;19942;-69
2024/02/20 12:49:42;;;;;;;;;;;;;;;;;;5076318;28;22066;-70
2024/02/20 12:52:07;;;;;;;;;;;;;;;;;;5057348;28;19923;-69
2024/02/20 12:54:33;;;;;;;;;;;;;;;;;;5072745;28;19916;-70
2024/02/20 12:56:59;;;;;;;;;;;;;;;;;;5071839;28;19943;-69
2024/02/20 12:59:24;;;;;;;;;;;;;;;;;;5073330;28;19924;-69
2024/02/20 13:01:49;;;;;;;;;;;;;;;;;;5071088;28;20375;-68
2024/02/20 13:04:18;;;;;;;;;;;;;;;;;;5071224;28;19955;-68
2024/02/20 13:06:43;;;;;;;;;;;;;;;;;;5090394;28;19996;-69
2024/02/20 13:09:10;;;;;;;;;;;;;;;;;;5090130;28;20559;-69
2024/02/20 13:11:35;;;;;;;;;;;;;;;;;;5090175;28;19920;-70
2024/02/20 13:14:03;;;;;;;;;;;;;;;;;;5088278;28;19915;-68
2024/02/20 13:16:28;;;;;;;;;;;;;;;;;;5089643;28;20274;-69
2024/02/20 13:18:56;;;;;;;;;;;;;;;;;;5092103;28;20493;-70
2024/02/20 13:21:21;;;;;;;;;;;;;;;;;;5089476;28;19916;-69
2024/02/20 13:23:52;;;;;;;;;;;;;;;;;;5090506;28;20633;-69
2024/02/20 13:26:17;;;;;;;;;;;;;;;;;;5074284;28;19980;-69
2024/02/20 13:28:43;;;;;;;;;;;;;;;;;;5070877;28;20390;-71
2024/02/20 13:31:09;;;;;;;;;;;;;;;;;;5069199;28;19997;-68
2024/02/20 13:33:37;;;;;;;;;;;;;;;;;;5074399;28;19916;-71
2024/02/20 13:36:02;;;;;;;;;;;;;;;;;;5071635;28;19953;-69
2024/02/20 13:38:27;;;;;;;;;;;;;;;;;;5089539;28;19977;-69
2024/02/20 13:40:53;;;;;;;;;;;;;;;;;;5086937;28;19991;-69
2024/02/20 13:43:18;;;;;;;;;;;;;;;;;;5091147;28;20027;-72
2024/02/20 13:45:43;;;;;;;;;;;;;;;;;;5072907;28;20982;-72
2024/02/20 13:48:09;;;;;;;;;;;;;;;;;;5073384;28;19916;-70
2024/02/20 13:50:34;;;;;;;;;;;;;;;;;;5086594;28;20413;-69
2024/02/20 13:52:59;;;;;;;;;;;;;;;;;;5086929;28;19968;-71
2024/02/20 13:55:25;;;;;;;;;;;;;;;;;;5088481;28;20005;-71
2024/02/20 13:57:50;;;;;;;;;;;;;;;;;;5070243;28;20602;-71
2024/02/20 14:00:16;;;;;;;;;;;;;;;;;;5069268;28;19998;-71
2024/02/20 14:02:43;;;;;;;;;;;;;;;;;;5088641;28;19916;-69
2024/02/20 14:05:09;;;;;;;;;;;;;;;;;;5071627;28;19981;-71
2024/02/20 14:07:34;;;;;;;;;;;;;;;;;;5087584;28;20350;-71
2024/02/20 14:10:04;;;;;;;;;;;;;;;;;;5087277;28;19920;-70
2024/02/20 14:12:32;;;;;;;;;;;;;;;;;;5072328;28;19961;-69
2024/02/20 14:14:57;;;;;;;;;;;;;;;;;;5056245;28;19923;-70
2024/02/20 14:17:22;;;;;;;;;;;;;;;;;;5087768;28;20378;-70
2024/02/20 14:19:48;;;;;;;;;;;;;;;;;;5087372;28;20676;-70
2024/02/20 14:22:16;;;;;;;;;;;;;;;;;;5055852;28;20423;-68
2024/02/20 14:24:42;;;;;;;;;;;;;;;;;;5071238;28;19916;-69
2024/02/20 14:27:07;;;;;;;;;;;;;;;;;;5069815;28;20387;-69
2024/02/20 14:29:35;;;;;;;;;;;;;;;;;;5072338;28;19919;-69
2024/02/20 14:32:00;;;;;;;;;;;;;;;;;;5071561;28;19919;-70
2024/02/20 14:34:27;;;;;;;;;;;;;;;;;;5072759;28;19953;-69
2024/02/20 14:36:53;;;;;;;;;;;;;;;;;;5071839;28;19916;-71
2024/02/20 14:39:18;;;;;;;;;;;;;;;;;;5088642;28;19927;-71
2024/02/20 14:41:44;;;;;;;;;;;;;;;;;;5068371;28;20011;-68
2024/02/20 14:44:16;;;;;;;;;;;;;;;;;;5088509;28;19915;-69
2024/02/20 14:46:43;;;;;;;;;;;;;;;;;;5056495;28;19999;-69
2024/02/20 14:49:08;;;;;;;;;;;;;;;;;;5088599;28;19916;-69
2024/02/20 14:51:37;;;;;;;;;;;;;;;;;;5088300;28;19916;-70
2024/02/20 14:54:04;;;;;;;;;;;;;;;;;;5086401;28;19988;-71
2024/02/20 14:56:31;;;;;;;;;;;;;;;;;;5071853;28;19919;-69
2024/02/20 14:58:57;;;;;;;;;;;;;;;;;;5070756;28;20272;-69
2024/02/20 15:01:23;;;;;;;;;;;;;;;;;;5089691;28;20569;-69
2024/02/20 15:03:48;;;;;;;;;;;;;;;;;;5069964;28;19920;-71
2024/02/20 15:06:14;;;;;;;;;;;;;;;;;;5085206;28;20012;-70
2024/02/20 15:08:41;;;;;;;;;;;;;;;;;;5072535;28;19923;-69
2024/02/20 15:11:09;;;;;;;;;;;;;;;;;;5072002;28;19923;-68
2024/02/20 15:13:38;;;;;;;;;;;;;;;;;;5071258;28;19922;-69
2024/02/20 15:16:03;;;;;;;;;;;;;;;;;;5069626;28;20151;-71
2024/02/20 15:18:29;;;;;;;;;;;;;;;;;;5086353;28;20367;-70
2024/02/20 15:20:57;;;;;;;;;;;;;;;;;;5087782;28;19940;-69
2024/02/20 15:23:22;;;;;;;;;;;;;;;;;;5088228;28;20009;-70
2024/02/20 15:25:47;;;;;;;;;;;;;;;;;;5068878;28;20450;-69
2024/02/20 15:28:13;;;;;;;;;;;;;;;;;;5086757;28;19941;-68
2024/02/20 15:30:38;;;;;;;;;;;;;;;;;;5086686;28;20288;-69
2024/02/20 15:33:04;;;;;;;;;;;;;;;;;;5069624;28;20267;-68
2024/02/20 15:35:31;;;;;;;;;;;;;;;;;;5071797;28;19916;-68
2024/02/20 15:38:02;;;;;;;;;;;;;;;;;;5085257;28;20746;-70
2024/02/20 15:40:29;;;;;;;;;;;;;;;;;;5088030;28;19916;-68
2024/02/20 15:42:57;;;;;;;;;;;;;;;;;;5070427;28;19915;-68
2024/02/20 15:45:25;;;;;;;;;;;;;;;;;;5087703;28;19958;-68
2024/02/20 15:47:50;;;;;;;;;;;;;;;;;;5069079;28;19919;-68
2024/02/20 15:50:15;;;;;;;;;;;;;;;;;;5086357;28;19920;-69
2024/02/20 15:52:40;;;;;;;;;;;;;;;;;;5071199;28;19964;-68
2024/02/20 15:55:06;;;;;;;;;;;;;;;;;;5070898;28;19915;-70
2024/02/20 15:57:31;;;;;;;;;;;;;;;;;;5053735;28;19927;-71
2024/02/20 15:59:57;;;;;;;;;;;;;;;;;;5086151;28;19947;-71
2024/02/20 16:02:23;;;;;;;;;;;;;;;;;;5069982;28;19920;-69
2024/02/20 16:04:50;;;;;;;;;;;;;;;;;;5070485;28;20497;-69
2024/02/20 16:07:15;;;;;;;;;;;;;;;;;;5088628;28;19926;-69
2024/02/20 16:09:43;;;;;;;;;;;;;;;;;;5070159;28;20044;-69
2024/02/20 16:12:11;;;;;;;;;;;;;;;;;;5085583;28;19948;-70
2024/02/20 16:14:37;;;;;;;;;;;;;;;;;;5054493;28;20056;-71
2024/02/20 16:17:02;;;;;;;;;;;;;;;;;;5086600;28;20286;-70
2024/02/20 16:19:31;;;;;;;;;;;;;;;;;;5070683;28;19920;-69
2024/02/20 16:21:59;;;;;;;;;;;;;;;;;;5054612;28;19920;-69
2024/02/20 16:24:28;;;;;;;;;;;;;;;;;;5068854;28;19920;-68
2024/02/20 16:26:57;;;;;;;;;;;;;;;;;;5071104;28;19916;-68
2024/02/20 16:29:23;;;;;;;;;;;;;;;;;;5069599;28;19926;-68
2024/02/20 16:31:48;;;;;;;;;;;;;;;;;;5071650;28;20493;-71
2024/02/20 16:34:16;;;;;;;;;;;;;;;;;;5087501;28;20271;-69
2024/02/20 16:36:41;;;;;;;;;;;;;;;;;;5085194;28;21080;-68
2024/02/20 16:39:06;;;;;;;;;;;;;;;;;;5088375;28;20466;-68
2024/02/20 16:41:32;;;;;;;;;;;;;;;;;;5075365;28;19915;-70
2024/02/20 16:43:57;;;;;;;;;;;;;;;;;;5075030;28;19926;-68
2024/02/20 16:46:22;;;;;;;;;;;;;;;;;;5091221;28;19915;-69
2024/02/20 16:48:48;;;;;;;;;;;;;;;;;;5073043;28;19936;-70